createdAt,value
2023-07-12T00:00:17.841Z,83.38
2023-07-12T00:01:21.074Z,83.39
2023-07-12T00:03:19.890Z,83.33
2023-07-12T00:04:23.463Z,83.28
2023-07-12T00:06:20.817Z,83.17
2023-07-12T00:07:24.783Z,83.01
2023-07-12T00:09:21.883Z,82.95
2023-07-12T00:10:24.960Z,82.97
2023-07-12T00:12:21.236Z,83.06
2023-07-12T00:13:24.465Z,83.11
2023-07-12T00:15:21.272Z,83.09
2023-07-12T00:16:24.905Z,83.07
2023-07-12T00:18:22.264Z,83.19
2023-07-12T00:19:26.307Z,83.35
2023-07-12T00:21:22.978Z,83.34
2023-07-12T00:22:26.285Z,83.35
2023-07-12T00:24:23.117Z,83.28
2023-07-12T00:25:26.333Z,83.30
2023-07-12T00:27:22.908Z,83.21
2023-07-12T00:28:26.067Z,83.18
2023-07-12T00:30:22.407Z,83.05
2023-07-12T00:31:26.145Z,82.97
2023-07-12T00:33:23.026Z,82.97
2023-07-12T00:34:26.003Z,82.94
2023-07-12T00:36:22.530Z,83.08
2023-07-12T00:37:25.681Z,83.06
2023-07-12T00:39:22.230Z,83.33
2023-07-12T00:40:26.299Z,83.44
2023-07-12T00:42:23.076Z,83.45
2023-07-12T00:43:27.384Z,83.38
2023-07-12T00:45:24.361Z,83.32
2023-07-12T00:46:27.682Z,83.30
2023-07-12T00:48:25.366Z,83.19
2023-07-12T00:49:28.519Z,83.18
2023-07-12T00:51:25.698Z,83.17
2023-07-12T00:52:29.071Z,83.00
2023-07-12T00:54:26.100Z,82.72
2023-07-12T00:55:29.388Z,82.17
2023-07-12T00:57:25.539Z,82.47
2023-07-12T00:58:28.878Z,82.53
2023-07-12T01:00:18.773Z,82.45
2023-07-12T01:01:22.119Z,82.56
2023-07-12T01:03:20.343Z,82.80
2023-07-12T01:04:24.401Z,82.91
2023-07-12T01:06:21.163Z,82.92
2023-07-12T01:07:24.582Z,82.87
2023-07-12T01:09:21.435Z,82.83
2023-07-12T01:10:24.989Z,82.80
2023-07-12T01:12:21.685Z,82.29
2023-07-12T01:13:24.913Z,82.36
2023-07-12T01:15:21.670Z,82.51
2023-07-12T01:16:25.011Z,82.54
2023-07-12T01:18:22.309Z,82.89
2023-07-12T01:19:26.308Z,82.74
2023-07-12T01:21:22.964Z,82.96
2023-07-12T01:22:26.547Z,83.03
2023-07-12T01:24:22.996Z,83.04
2023-07-12T01:25:26.267Z,82.93
2023-07-12T01:27:22.960Z,83.24
2023-07-12T01:28:26.482Z,83.15
2023-07-12T01:30:23.182Z,83.17
2023-07-12T01:31:26.706Z,83.17
2023-07-12T01:33:24.090Z,83.11
2023-07-12T01:34:27.476Z,83.32
2023-07-12T01:36:24.380Z,83.41
2023-07-12T01:37:27.618Z,83.70
2023-07-12T01:39:24.189Z,83.74
2023-07-12T01:40:27.578Z,83.77
2023-07-12T01:42:24.613Z,84.02
2023-07-12T01:43:27.759Z,84.32
2023-07-12T01:45:25.380Z,84.54
2023-07-12T01:46:28.623Z,84.72
2023-07-12T01:48:25.600Z,85.26
2023-07-12T01:49:29.034Z,85.40
2023-07-12T01:51:25.437Z,85.38
2023-07-12T01:52:28.793Z,85.36
2023-07-12T01:54:25.598Z,85.60
2023-07-12T01:55:28.868Z,85.61
2023-07-12T01:57:25.610Z,85.77
2023-07-12T01:58:28.842Z,85.73
2023-07-12T02:00:17.893Z,85.62
2023-07-12T02:01:21.448Z,85.60
2023-07-12T02:03:19.331Z,85.12
2023-07-12T02:04:23.235Z,84.98
2023-07-12T02:06:19.713Z,85.22
2023-07-12T02:07:22.788Z,85.42
2023-07-12T02:09:19.981Z,85.57
2023-07-12T02:10:23.555Z,85.61
2023-07-12T02:12:19.841Z,85.18
2023-07-12T02:13:23.026Z,85.16
2023-07-12T02:15:19.956Z,84.72
2023-07-12T02:16:23.554Z,84.92
2023-07-12T02:18:20.866Z,85.06
2023-07-12T02:19:24.638Z,84.84
2023-07-12T02:21:21.174Z,84.55
2023-07-12T02:22:24.327Z,84.45
2023-07-12T02:24:20.935Z,84.68
2023-07-12T02:25:24.138Z,84.88
2023-07-12T02:27:20.866Z,85.11
2023-07-12T02:28:24.217Z,85.27
2023-07-12T02:30:20.672Z,85.48
2023-07-12T02:31:23.981Z,85.44
2023-07-12T02:33:21.282Z,85.05
2023-07-12T02:34:24.507Z,85.02
2023-07-12T02:36:21.228Z,84.95
2023-07-12T02:37:24.441Z,84.98
2023-07-12T02:39:21.167Z,84.95
2023-07-12T02:40:24.282Z,84.97
2023-07-12T02:42:20.760Z,84.89
2023-07-12T02:43:23.887Z,84.98
2023-07-12T02:45:20.593Z,85.23
2023-07-12T02:46:24.152Z,84.89
2023-07-12T02:48:21.197Z,84.69
2023-07-12T02:49:24.698Z,84.41
2023-07-12T02:51:21.246Z,84.78
2023-07-12T02:52:24.449Z,84.48
2023-07-12T02:54:23.631Z,84.67
2023-07-12T02:55:26.621Z,84.67
2023-07-12T02:57:23.084Z,84.78
2023-07-12T02:58:26.530Z,84.82
2023-07-12T03:00:17.584Z,85.13
2023-07-12T03:01:21.100Z,85.27
2023-07-12T03:03:18.609Z,85.51
2023-07-12T03:04:22.988Z,85.53
2023-07-12T03:06:20.659Z,85.72
2023-07-12T03:07:24.038Z,85.82
2023-07-12T03:09:20.382Z,85.61
2023-07-12T03:10:23.639Z,85.59
2023-07-12T03:12:20.420Z,85.77
2023-07-12T03:13:24.476Z,85.82
2023-07-12T03:15:22.124Z,85.86
2023-07-12T03:16:25.433Z,86.05
2023-07-12T03:18:23.120Z,86.17
2023-07-12T03:19:27.091Z,86.12
2023-07-12T03:21:23.871Z,86.17
2023-07-12T03:22:27.104Z,86.25
2023-07-12T03:24:23.690Z,86.30
2023-07-12T03:25:26.992Z,86.34
2023-07-12T03:27:23.266Z,86.35
2023-07-12T03:28:26.270Z,86.35
2023-07-12T03:30:23.045Z,86.32
2023-07-12T03:31:26.704Z,86.24
2023-07-12T03:33:23.696Z,86.21
2023-07-12T03:34:26.832Z,86.18
2023-07-12T03:36:23.629Z,86.11
2023-07-12T03:37:26.887Z,86.09
2023-07-12T03:39:24.613Z,85.95
2023-07-12T03:40:27.777Z,86.01
2023-07-12T03:42:24.696Z,85.96
2023-07-12T03:43:27.987Z,86.01
2023-07-12T03:45:24.611Z,86.20
2023-07-12T03:46:27.861Z,86.17
2023-07-12T03:48:25.538Z,86.14
2023-07-12T03:49:29.214Z,86.19
2023-07-12T03:51:25.948Z,86.10
2023-07-12T03:52:29.001Z,86.16
2023-07-12T03:54:27.552Z,86.28
2023-07-12T03:55:30.737Z,86.17
2023-07-12T03:57:27.130Z,86.17
2023-07-12T03:58:30.491Z,86.19
2023-07-12T04:00:18.451Z,86.28
2023-07-12T04:01:22.516Z,86.26
2023-07-12T04:03:22.833Z,86.23
2023-07-12T04:04:26.727Z,86.12
2023-07-12T04:05:50.231Z,86.23
2023-07-12T04:06:53.759Z,86.27
2023-07-12T04:08:50.795Z,86.17
2023-07-12T04:09:54.230Z,86.31
2023-07-12T04:11:51.680Z,86.26
2023-07-12T04:12:55.335Z,86.35
2023-07-12T04:14:52.701Z,86.34
2023-07-12T04:15:56.333Z,86.38
2023-07-12T04:17:54.897Z,86.41
2023-07-12T04:18:59.959Z,86.50
2023-07-12T04:20:56.638Z,86.53
2023-07-12T04:22:00.336Z,86.52
2023-07-12T04:23:56.880Z,86.53
2023-07-12T04:25:00.225Z,86.61
2023-07-12T04:26:59.476Z,86.55
2023-07-12T04:28:02.752Z,86.62
2023-07-12T04:29:59.658Z,86.21
2023-07-12T04:31:03.135Z,86.48
2023-07-12T04:33:01.290Z,86.70
2023-07-12T04:34:04.995Z,86.83
2023-07-12T04:36:19.843Z,86.70
2023-07-12T04:37:23.463Z,86.67
2023-07-12T04:39:20.657Z,86.71
2023-07-12T04:40:23.760Z,86.84
2023-07-12T04:42:21.859Z,86.87
2023-07-12T04:43:26.420Z,86.62
2023-07-12T04:45:23.277Z,86.79
2023-07-12T04:46:26.885Z,86.85
2023-07-12T04:48:24.221Z,86.60
2023-07-12T04:49:27.451Z,86.72
2023-07-12T04:51:24.445Z,86.85
2023-07-12T04:52:27.613Z,86.99
2023-07-12T04:54:24.121Z,86.80
2023-07-12T04:55:27.402Z,86.82
2023-07-12T04:57:25.102Z,86.92
2023-07-12T04:58:28.412Z,86.83
2023-07-12T05:00:17.919Z,86.54
2023-07-12T05:01:21.681Z,86.39
2023-07-12T05:03:19.065Z,86.28
2023-07-12T05:04:23.209Z,86.41
2023-07-12T05:06:29.287Z,86.51
2023-07-12T05:07:32.481Z,86.52
2023-07-12T05:09:29.440Z,86.51
2023-07-12T05:10:32.620Z,86.27
2023-07-12T05:12:29.444Z,86.04
2023-07-12T05:13:32.994Z,86.12
2023-07-12T05:15:29.809Z,85.73
2023-07-12T05:16:33.232Z,85.93
2023-07-12T05:18:31.236Z,86.15
2023-07-12T05:19:35.301Z,86.29
2023-07-12T05:21:32.413Z,86.12
2023-07-12T05:22:35.760Z,86.07
2023-07-12T05:24:35.180Z,85.88
2023-07-12T05:25:38.486Z,85.95
2023-07-12T05:27:35.891Z,85.98
2023-07-12T05:28:39.257Z,85.73
2023-07-12T05:30:36.053Z,86.00
2023-07-12T05:31:40.389Z,86.06
2023-07-12T05:33:39.200Z,86.11
2023-07-12T05:34:42.494Z,86.00
2023-07-12T05:36:39.518Z,85.90
2023-07-12T05:37:42.904Z,85.63
2023-07-12T05:39:39.615Z,85.93
2023-07-12T05:40:42.893Z,85.86
2023-07-12T05:42:39.466Z,86.01
2023-07-12T05:43:42.951Z,86.66
2023-07-12T05:45:39.577Z,85.60
2023-07-12T05:46:43.146Z,86.01
2023-07-12T05:48:40.818Z,86.30
2023-07-12T05:49:45.111Z,86.19
2023-07-12T05:51:41.636Z,86.38
2023-07-12T05:52:46.689Z,86.23
2023-07-12T05:54:46.093Z,86.26
2023-07-12T05:55:49.854Z,86.10
2023-07-12T05:57:46.495Z,85.82
2023-07-12T05:58:54.604Z,85.97
2023-07-12T06:00:17.572Z,85.60
2023-07-12T06:01:21.256Z,85.75
2023-07-12T06:03:18.844Z,84.66
2023-07-12T06:04:23.323Z,84.38
2023-07-12T06:06:20.609Z,84.14
2023-07-12T06:07:24.061Z,83.67
2023-07-12T06:09:21.052Z,83.40
2023-07-12T06:10:24.309Z,82.33
2023-07-12T06:12:21.918Z,82.55
2023-07-12T06:13:25.335Z,83.06
2023-07-12T06:15:22.285Z,83.04
2023-07-12T06:16:25.684Z,82.98
2023-07-12T06:18:25.312Z,81.70
2023-07-12T06:19:29.289Z,82.04
2023-07-12T06:21:26.316Z,82.61
2023-07-12T06:22:31.934Z,82.14
2023-07-12T06:24:29.147Z,82.37
2023-07-12T06:25:32.558Z,82.64
2023-07-12T06:27:29.055Z,82.68
2023-07-12T06:28:32.314Z,82.34
2023-07-12T06:30:29.534Z,81.78
2023-07-12T06:31:33.850Z,82.17
2023-07-12T06:33:32.379Z,81.60
2023-07-12T06:34:35.875Z,81.95
2023-07-12T06:36:32.580Z,82.16
2023-07-12T06:37:35.833Z,81.96
2023-07-12T06:39:32.603Z,81.79
2023-07-12T06:40:36.025Z,81.91
2023-07-12T06:42:33.103Z,81.94
2023-07-12T06:43:36.385Z,81.78
2023-07-12T06:45:33.216Z,81.50
2023-07-12T06:46:36.783Z,81.74
2023-07-12T06:48:34.346Z,81.57
2023-07-12T06:49:40.891Z,81.23
2023-07-12T06:51:37.684Z,81.82
2023-07-12T06:52:41.071Z,81.97
2023-07-12T06:54:39.453Z,81.57
2023-07-12T06:55:43.013Z,81.70
2023-07-12T06:57:39.607Z,81.21
2023-07-12T06:58:43.025Z,81.27
2023-07-12T07:00:18.326Z,81.95
2023-07-12T07:01:22.033Z,81.67
2023-07-12T07:03:19.421Z,81.40
2023-07-12T07:04:23.129Z,81.60
2023-07-12T07:06:20.026Z,81.80
2023-07-12T07:07:23.134Z,81.97
2023-07-12T07:09:20.368Z,82.42
2023-07-12T07:10:23.789Z,82.19
2023-07-12T07:12:20.604Z,82.12
2023-07-12T07:13:23.837Z,82.17
2023-07-12T07:15:21.028Z,81.61
2023-07-12T07:16:24.575Z,81.61
2023-07-12T07:18:22.714Z,80.97
2023-07-12T07:19:28.978Z,80.98
2023-07-12T07:21:27.048Z,80.84
2023-07-12T07:22:30.537Z,80.63
2023-07-12T07:24:28.341Z,80.45
2023-07-12T07:25:31.865Z,80.46
2023-07-12T07:27:29.653Z,80.63
2023-07-12T07:28:32.874Z,80.21
2023-07-12T07:30:29.719Z,80.47
2023-07-12T07:31:33.297Z,80.36
2023-07-12T07:33:31.033Z,80.20
2023-07-12T07:34:34.062Z,79.95
2023-07-12T07:36:31.252Z,79.50
2023-07-12T07:37:34.733Z,80.44
2023-07-12T07:39:31.691Z,80.32
2023-07-12T07:40:35.528Z,80.74
2023-07-12T07:42:32.986Z,80.04
2023-07-12T07:43:36.478Z,80.44
2023-07-12T07:45:33.373Z,80.47
2023-07-12T07:46:39.615Z,80.61
2023-07-12T07:48:36.932Z,80.42
2023-07-12T07:49:40.530Z,79.62
2023-07-12T07:51:36.917Z,79.23
2023-07-12T07:52:40.391Z,79.26
2023-07-12T07:54:37.212Z,79.89
2023-07-12T07:55:40.813Z,80.22
2023-07-12T07:57:37.093Z,80.87
2023-07-12T07:58:40.735Z,80.26
2023-07-12T08:00:18.029Z,79.69
2023-07-12T08:01:21.191Z,79.51
2023-07-12T08:03:18.714Z,80.71
2023-07-12T08:04:23.418Z,80.58
2023-07-12T08:06:20.625Z,80.62
2023-07-12T08:07:24.079Z,80.37
2023-07-12T08:09:21.312Z,79.25
2023-07-12T08:10:24.860Z,79.11
2023-07-12T08:12:23.591Z,78.65
2023-07-12T08:13:27.024Z,78.22
2023-07-12T08:15:23.781Z,78.17
2023-07-12T08:16:26.980Z,77.85
2023-07-12T08:18:27.450Z,77.11
2023-07-12T08:19:31.141Z,76.63
2023-07-12T08:21:28.183Z,77.23
2023-07-12T08:22:31.600Z,75.54
2023-07-12T08:24:29.588Z,76.22
2023-07-12T08:25:33.664Z,76.66
2023-07-12T08:27:53.871Z,77.29
2023-07-12T08:28:57.585Z,77.41
2023-07-12T08:30:54.361Z,75.89
2023-07-12T08:32:00.290Z,76.11
2023-07-12T08:33:59.479Z,77.20
2023-07-12T08:35:02.884Z,77.41
2023-07-12T08:37:17.010Z,78.01
2023-07-12T08:38:20.882Z,78.03
2023-07-12T08:40:18.466Z,77.87
2023-07-12T08:41:21.705Z,77.79
2023-07-12T08:43:18.771Z,77.73
2023-07-12T08:44:22.212Z,77.66
2023-07-12T08:46:19.874Z,76.87
2023-07-12T08:47:24.221Z,77.22
2023-07-12T08:49:21.534Z,76.82
2023-07-12T08:50:24.789Z,76.89
2023-07-12T08:52:24.999Z,77.92
2023-07-12T08:53:28.410Z,76.65
2023-07-12T08:55:39.804Z,75.72
2023-07-12T08:56:43.098Z,76.29
2023-07-12T08:58:39.743Z,76.30
2023-07-12T08:59:43.106Z,75.51
2023-07-12T09:01:20.637Z,76.06
2023-07-12T09:03:18.057Z,75.75
2023-07-12T09:04:21.547Z,74.74
2023-07-12T09:06:19.121Z,74.84
2023-07-12T09:07:22.442Z,74.76
2023-07-12T09:09:19.761Z,73.21
2023-07-12T09:10:22.894Z,73.40
2023-07-12T09:12:20.095Z,72.36
2023-07-12T09:13:23.770Z,73.11
2023-07-12T09:15:20.493Z,75.15
2023-07-12T09:16:23.950Z,72.96
2023-07-12T09:18:22.135Z,72.42
2023-07-12T09:19:25.906Z,71.78
2023-07-12T09:21:22.960Z,72.45
2023-07-12T09:22:29.070Z,74.12
2023-07-12T09:24:26.345Z,73.00
2023-07-12T09:25:29.592Z,71.99
2023-07-12T09:27:26.528Z,71.19
2023-07-12T09:28:30.310Z,71.42
2023-07-12T09:30:27.361Z,71.16
2023-07-12T09:31:31.406Z,70.99
2023-07-12T09:33:30.350Z,71.74
2023-07-12T09:34:36.914Z,72.29
2023-07-12T09:36:33.611Z,71.35
2023-07-12T09:37:37.125Z,71.15
2023-07-12T09:39:34.214Z,70.14
2023-07-12T09:40:37.515Z,68.84
2023-07-12T09:42:34.336Z,68.04
2023-07-12T09:43:38.016Z,68.62
2023-07-12T09:45:34.849Z,66.18
2023-07-12T09:47:00.701Z,67.53
2023-07-12T09:48:57.797Z,68.06
2023-07-12T09:50:01.053Z,67.84
2023-07-12T09:51:58.162Z,66.34
2023-07-12T09:53:01.194Z,66.89
2023-07-12T09:54:57.735Z,66.48
2023-07-12T09:56:01.460Z,67.61
2023-07-12T09:57:59.075Z,68.84
2023-07-12T09:59:02.888Z,68.96
2023-07-12T10:00:18.187Z,67.37
2023-07-12T10:01:21.722Z,66.38
2023-07-12T10:03:19.384Z,67.26
2023-07-12T10:04:22.852Z,67.70
2023-07-12T10:06:21.577Z,68.45
2023-07-12T10:07:25.434Z,68.24
2023-07-12T10:09:22.440Z,67.86
2023-07-12T10:10:25.881Z,68.07
2023-07-12T10:12:24.300Z,68.35
2023-07-12T10:13:27.566Z,68.35
2023-07-12T10:15:24.689Z,68.95
2023-07-12T10:16:27.998Z,69.49
2023-07-12T10:18:25.799Z,68.58
2023-07-12T10:19:29.761Z,67.78
2023-07-12T10:21:26.770Z,67.24
2023-07-12T10:22:30.048Z,66.48
2023-07-12T10:24:26.992Z,67.76
2023-07-12T10:25:30.568Z,67.60
2023-07-12T10:27:27.088Z,67.28
2023-07-12T10:28:30.454Z,67.15
2023-07-12T10:30:30.336Z,68.87
2023-07-12T10:31:34.041Z,68.32
2023-07-12T10:33:31.124Z,69.15
2023-07-12T10:34:37.285Z,69.88
2023-07-12T10:36:34.235Z,70.25
2023-07-12T10:37:37.660Z,70.52
2023-07-12T10:39:34.423Z,71.69
2023-07-12T10:40:40.430Z,72.43
2023-07-12T10:42:37.870Z,75.04
2023-07-12T10:43:41.290Z,75.18
2023-07-12T10:45:38.085Z,76.02
2023-07-12T10:46:44.829Z,76.24
2023-07-12T10:48:42.264Z,76.82
2023-07-12T10:49:45.857Z,76.61
2023-07-12T10:51:45.500Z,77.28
2023-07-12T10:52:49.437Z,77.29
2023-07-12T10:55:03.269Z,77.17
2023-07-12T10:56:07.068Z,77.24
2023-07-12T10:58:03.961Z,77.65
2023-07-12T10:59:07.137Z,77.95
2023-07-12T11:00:18.136Z,77.97
2023-07-12T11:01:21.944Z,77.65
2023-07-12T11:03:19.508Z,77.97
2023-07-12T11:04:23.380Z,78.65
2023-07-12T11:06:24.548Z,76.88
2023-07-12T11:07:28.006Z,77.33
2023-07-12T11:09:25.382Z,77.05
2023-07-12T11:10:31.913Z,77.41
2023-07-12T11:12:29.203Z,78.16
2023-07-12T11:13:32.660Z,79.26
2023-07-12T11:15:30.069Z,80.67
2023-07-12T11:16:33.600Z,80.64
2023-07-12T11:18:32.098Z,80.20
2023-07-12T11:19:36.433Z,80.19
2023-07-12T11:21:33.570Z,81.21
2023-07-12T11:22:37.018Z,81.61
2023-07-12T11:24:33.984Z,81.02
2023-07-12T11:25:37.501Z,81.77
2023-07-12T11:27:34.353Z,82.28
2023-07-12T11:28:37.956Z,82.56
2023-07-12T11:30:34.903Z,81.79
2023-07-12T11:31:39.190Z,78.80
2023-07-12T11:33:36.325Z,78.96
2023-07-12T11:34:39.827Z,79.15
2023-07-12T11:36:36.759Z,78.98
2023-07-12T11:37:40.336Z,78.86
2023-07-12T11:39:37.185Z,77.63
2023-07-12T11:40:40.714Z,76.64
2023-07-12T11:42:37.494Z,76.11
2023-07-12T11:43:41.071Z,75.87
2023-07-12T11:45:38.154Z,75.65
2023-07-12T11:46:42.057Z,75.37
2023-07-12T11:48:40.724Z,75.21
2023-07-12T11:49:44.245Z,74.99
2023-07-12T11:51:41.093Z,74.17
2023-07-12T11:52:44.237Z,74.21
2023-07-12T11:54:41.208Z,76.10
2023-07-12T11:55:45.100Z,76.33
2023-07-12T11:57:42.576Z,76.14
2023-07-12T11:58:46.206Z,75.92
2023-07-12T12:00:17.678Z,76.33
2023-07-12T12:01:20.898Z,76.77
2023-07-12T12:03:19.288Z,78.88
2023-07-12T12:04:23.836Z,80.38
2023-07-12T12:06:22.122Z,80.63
2023-07-12T12:07:25.215Z,79.73
2023-07-12T12:09:22.377Z,79.78
2023-07-12T12:10:25.957Z,80.06
2023-07-12T12:12:22.944Z,81.00
2023-07-12T12:13:28.092Z,81.95
2023-07-12T12:15:25.702Z,85.24
2023-07-12T12:16:29.109Z,86.64
2023-07-12T12:18:27.444Z,86.97
2023-07-12T12:19:33.250Z,86.24
2023-07-12T12:21:35.794Z,85.13
2023-07-12T12:22:47.138Z,85.14
2023-07-12T12:24:45.301Z,83.42
2023-07-12T12:25:48.802Z,82.88
2023-07-12T12:28:01.794Z,81.81
2023-07-12T12:29:05.235Z,80.90
2023-07-12T12:31:02.167Z,80.54
2023-07-12T12:32:07.369Z,79.80
2023-07-12T12:34:05.522Z,80.51
2023-07-12T12:35:08.926Z,81.40
2023-07-12T12:37:06.069Z,81.44
2023-07-12T12:38:12.231Z,81.52
2023-07-12T12:40:09.067Z,81.29
2023-07-12T12:41:12.617Z,82.15
2023-07-12T12:43:09.510Z,83.37
2023-07-12T12:44:12.982Z,84.07
2023-07-12T12:46:21.354Z,85.51
2023-07-12T12:48:10.852Z,84.84
2023-07-12T12:55:08.373Z,82.85
2023-07-12T13:18:19.232Z,79.65
2023-07-12T13:21:24.562Z,79.77
2023-07-12T13:22:29.746Z,80.53
2023-07-12T13:24:35.857Z,80.19
2023-07-12T13:25:42.343Z,80.66
2023-07-12T13:27:39.457Z,79.86
2023-07-12T13:28:42.665Z,77.85
2023-07-12T13:30:39.693Z,70.99
2023-07-12T13:31:42.914Z,72.32
2023-07-12T13:33:40.522Z,71.34
2023-07-12T13:36:50.248Z,75.06
2023-07-12T13:40:34.877Z,76.60
2023-07-12T13:44:09.426Z,77.78
2023-07-12T13:46:20.760Z,77.18
2023-07-12T13:48:19.852Z,75.19
2023-07-12T13:49:23.673Z,73.47
2023-07-12T13:51:20.528Z,73.44
2023-07-12T13:52:23.704Z,72.74
2023-07-12T13:54:20.585Z,67.32
2023-07-12T13:55:23.813Z,67.97
2023-07-12T14:00:42.095Z,68.75
2023-07-12T14:07:16.430Z,65.95
2023-07-12T14:09:45.246Z,68.39
2023-07-12T14:11:18.797Z,69.37
2023-07-12T14:13:15.936Z,67.34
2023-07-12T14:14:19.995Z,68.13
2023-07-12T14:16:17.723Z,68.89
2023-07-12T14:17:22.868Z,68.62
2023-07-12T14:19:20.190Z,64.44
2023-07-12T14:20:24.982Z,65.47
2023-07-12T14:22:21.978Z,60.40
2023-07-12T14:23:26.434Z,59.82
2023-07-12T14:25:23.528Z,62.11
2023-07-12T14:26:26.881Z,63.01
2023-07-12T14:28:23.580Z,62.50
2023-07-12T14:32:36.150Z,64.00
2023-07-12T14:33:44.448Z,61.73
2023-07-12T14:35:41.184Z,63.70
2023-07-12T14:36:44.733Z,64.78
2023-07-12T14:38:43.767Z,63.84
2023-07-12T14:39:47.632Z,61.54
2023-07-12T14:41:44.654Z,62.95
2023-07-12T14:42:47.794Z,62.17
2023-07-12T14:44:44.297Z,55.98
2023-07-12T14:45:47.699Z,57.24
2023-07-12T14:47:46.765Z,59.63
2023-07-12T14:48:50.612Z,61.26
2023-07-12T14:50:49.919Z,60.65
2023-07-12T14:52:13.904Z,61.05
2023-07-12T14:54:10.629Z,56.21
2023-07-12T14:55:22.981Z,55.21
2023-07-12T14:59:10.058Z,54.68
2023-07-12T15:00:17.725Z,57.85
2023-07-12T15:01:21.666Z,58.87
2023-07-12T15:03:19.443Z,60.39
2023-07-12T15:04:22.992Z,58.57
2023-07-12T15:06:20.607Z,57.48
2023-07-12T15:07:23.822Z,57.77
2023-07-12T15:09:29.196Z,56.27
2023-07-12T15:10:32.701Z,56.66
2023-07-12T15:12:29.028Z,57.25
2023-07-12T15:13:32.581Z,58.04
2023-07-12T15:15:29.153Z,57.25
2023-07-12T15:16:32.526Z,54.62
2023-07-12T15:18:29.926Z,53.90
2023-07-12T15:19:33.626Z,54.92
2023-07-12T15:21:30.412Z,54.50
2023-07-12T15:22:34.012Z,56.50
2023-07-12T15:24:32.889Z,58.12
2023-07-12T15:25:36.137Z,59.46
2023-07-12T15:27:33.126Z,56.72
2023-07-12T15:28:36.261Z,57.95
2023-07-12T15:30:33.030Z,56.46
2023-07-12T15:31:36.530Z,56.18
2023-07-12T15:33:33.941Z,53.40
2023-07-12T15:34:40.636Z,54.31
2023-07-12T15:36:37.528Z,52.65
2023-07-12T15:37:40.906Z,52.24
2023-07-12T15:39:37.753Z,52.61
2023-07-12T15:40:41.310Z,50.41
2023-07-12T15:42:37.956Z,53.25
2023-07-12T15:43:41.509Z,50.71
2023-07-12T15:45:39.673Z,50.67
2023-07-12T15:46:43.526Z,51.44
2023-07-12T15:48:40.312Z,51.81
2023-07-12T15:49:43.544Z,52.86
2023-07-12T15:51:40.262Z,54.31
2023-07-12T15:52:43.499Z,54.61
2023-07-12T15:54:40.242Z,56.06
2023-07-12T15:55:43.752Z,56.44
2023-07-12T15:57:40.380Z,57.08
2023-07-12T15:58:44.005Z,57.31
2023-07-12T16:00:18.047Z,56.75
2023-07-12T16:01:21.428Z,54.68
2023-07-12T16:03:18.590Z,53.87
2023-07-12T16:04:21.998Z,56.48
2023-07-12T16:05:50.151Z,53.14
2023-07-12T16:06:54.683Z,54.07
2023-07-12T16:08:51.505Z,55.90
2023-07-12T16:09:58.130Z,57.11
2023-07-12T16:11:54.736Z,54.64
2023-07-12T16:12:58.138Z,53.85
2023-07-12T16:14:59.361Z,54.04
2023-07-12T16:16:04.527Z,55.53
2023-07-12T16:18:02.379Z,56.78
2023-07-12T16:19:06.174Z,54.45
2023-07-12T16:21:02.925Z,52.60
2023-07-12T16:22:06.449Z,53.37
2023-07-12T16:24:03.465Z,53.25
2023-07-12T16:25:06.643Z,53.45
2023-07-12T16:27:03.927Z,54.53
2023-07-12T16:28:07.278Z,55.56
2023-07-12T16:30:04.348Z,56.42
2023-07-12T16:31:07.739Z,55.50
2023-07-12T16:33:05.307Z,54.43
2023-07-12T16:34:08.467Z,55.51
2023-07-12T16:36:05.438Z,55.75
2023-07-12T16:37:09.509Z,54.15
2023-07-12T16:39:09.869Z,55.56
2023-07-12T16:40:13.359Z,55.77
2023-07-12T16:42:10.472Z,56.08
2023-07-12T16:43:13.909Z,56.18
2023-07-12T16:45:10.779Z,53.04
2023-07-12T16:46:14.651Z,54.46
2023-07-12T16:48:12.331Z,54.63
2023-07-12T16:49:15.704Z,54.28
2023-07-12T16:51:12.621Z,50.46
2023-07-12T16:52:15.965Z,53.14
2023-07-12T16:54:14.387Z,54.40
2023-07-12T16:55:18.577Z,53.01
2023-07-12T16:57:15.473Z,53.74
2023-07-12T16:58:19.440Z,50.26
2023-07-12T17:00:19.110Z,52.09
2023-07-12T17:01:23.183Z,53.15
2023-07-12T17:03:20.709Z,52.75
2023-07-12T17:04:24.445Z,53.02
2023-07-12T17:06:22.346Z,51.55
2023-07-12T17:07:25.653Z,52.40
2023-07-12T17:09:22.356Z,52.93
2023-07-12T17:10:25.712Z,52.17
2023-07-12T17:12:22.402Z,52.21
2023-07-12T17:13:25.999Z,53.45
2023-07-12T17:15:22.899Z,52.30
2023-07-12T17:16:26.240Z,52.53
2023-07-12T17:18:23.959Z,52.51
2023-07-12T17:19:27.609Z,53.14
2023-07-12T17:21:24.621Z,53.63
2023-07-12T17:22:28.211Z,53.93
2023-07-12T17:24:25.903Z,54.37
2023-07-12T17:25:29.865Z,53.34
2023-07-12T17:27:26.970Z,54.68
2023-07-12T17:28:30.410Z,53.91
2023-07-12T17:30:26.970Z,54.20
2023-07-12T17:31:30.514Z,55.07
2023-07-12T17:33:28.792Z,53.72
2023-07-12T17:34:32.148Z,53.02
2023-07-12T17:36:28.891Z,51.94
2023-07-12T17:37:32.482Z,52.93
2023-07-12T17:39:29.191Z,53.00
2023-07-12T17:40:50.151Z,53.41
2023-07-12T17:42:47.667Z,52.89
2023-07-12T17:43:50.983Z,54.17
2023-07-12T17:45:47.719Z,52.87
2023-07-12T17:46:52.033Z,53.55
2023-07-12T17:48:49.284Z,54.42
2023-07-12T17:49:52.587Z,52.78
2023-07-12T17:51:49.242Z,53.31
2023-07-12T17:52:52.855Z,53.50
2023-07-12T17:54:49.669Z,53.85
2023-07-12T17:55:52.852Z,54.54
2023-07-12T17:57:50.618Z,54.29
2023-07-12T17:58:54.168Z,54.31
2023-07-12T18:00:18.298Z,55.00
2023-07-12T18:01:22.025Z,55.49
2023-07-12T18:03:20.092Z,55.34
2023-07-12T18:04:24.202Z,56.24
2023-07-12T18:06:22.553Z,56.55
2023-07-12T18:07:26.094Z,55.84
2023-07-12T18:09:22.835Z,56.55
2023-07-12T18:10:26.300Z,56.97
2023-07-12T18:12:23.049Z,57.29
2023-07-12T18:13:26.468Z,58.55
2023-07-12T18:15:23.216Z,59.84
2023-07-12T18:16:27.115Z,59.23
2023-07-12T18:18:24.511Z,59.33
2023-07-12T18:19:28.057Z,59.57
2023-07-12T18:21:24.769Z,59.90
2023-07-12T18:22:28.275Z,60.19
2023-07-12T18:24:25.549Z,60.05
2023-07-12T18:25:29.090Z,56.96
2023-07-12T18:27:26.265Z,57.50
2023-07-12T18:28:29.557Z,57.32
2023-07-12T18:30:26.398Z,58.34
2023-07-12T18:31:29.967Z,58.92
2023-07-12T18:33:28.276Z,59.61
2023-07-12T18:34:31.694Z,59.95
2023-07-12T18:36:28.752Z,60.85
2023-07-12T18:37:32.147Z,59.29
2023-07-12T18:39:29.108Z,60.31
2023-07-12T18:40:32.559Z,59.97
2023-07-12T18:42:29.731Z,60.58
2023-07-12T18:43:33.028Z,60.43
2023-07-12T18:45:30.107Z,61.82
2023-07-12T18:46:33.785Z,61.24
2023-07-12T18:48:30.934Z,61.48
2023-07-12T18:49:33.960Z,61.09
2023-07-12T18:51:30.936Z,57.20
2023-07-12T18:52:34.270Z,57.58
2023-07-12T18:54:31.235Z,59.57
2023-07-12T18:55:34.473Z,60.52
2023-07-12T18:57:31.509Z,60.82
2023-07-12T18:58:34.998Z,59.68
2023-07-12T19:00:17.616Z,60.18
2023-07-12T19:01:21.191Z,60.33
2023-07-12T19:03:19.624Z,59.37
2023-07-12T19:04:25.293Z,59.24
2023-07-12T19:06:22.147Z,59.64
2023-07-12T19:07:25.650Z,59.88
2023-07-12T19:09:22.543Z,59.02
2023-07-12T19:10:26.089Z,59.42
2023-07-12T19:12:22.862Z,58.93
2023-07-12T19:13:26.173Z,58.93
2023-07-12T19:15:23.069Z,58.77
2023-07-12T19:16:26.810Z,59.71
2023-07-12T19:18:25.700Z,60.42
2023-07-12T19:19:29.361Z,60.19
2023-07-12T19:21:29.910Z,60.36
2023-07-12T19:22:33.243Z,60.27
2023-07-12T19:24:30.749Z,60.94
2023-07-12T19:25:34.111Z,59.28
2023-07-12T19:27:48.136Z,59.81
2023-07-12T19:28:51.671Z,60.80
2023-07-12T19:30:48.861Z,61.31
2023-07-12T19:31:52.939Z,61.56
2023-07-12T19:33:50.063Z,62.29
2023-07-12T19:34:53.483Z,62.18
2023-07-12T19:36:51.838Z,62.79
2023-07-12T19:37:55.075Z,62.96
2023-07-12T19:39:51.979Z,63.36
2023-07-12T19:40:55.542Z,63.62
2023-07-12T19:42:54.495Z,63.92
2023-07-12T19:43:58.048Z,64.13
2023-07-12T19:45:54.890Z,64.66
2023-07-12T19:46:58.983Z,64.84
2023-07-12T19:48:56.288Z,64.96
2023-07-12T19:49:59.552Z,65.06
2023-07-12T19:51:56.234Z,65.17
2023-07-12T19:52:59.373Z,65.28
2023-07-12T19:54:59.642Z,65.59
2023-07-12T19:56:02.757Z,65.71
2023-07-12T19:58:01.261Z,65.67
2023-07-12T19:59:04.614Z,65.77
2023-07-12T20:00:18.626Z,65.85
2023-07-12T20:01:22.271Z,66.26
2023-07-12T20:03:20.138Z,66.41
2023-07-12T20:04:24.069Z,66.56
2023-07-12T20:06:21.157Z,66.88
2023-07-12T20:07:33.466Z,67.12
2023-07-12T20:09:30.160Z,67.32
2023-07-12T20:10:33.491Z,67.42
2023-07-12T20:12:30.211Z,67.51